Time;durP1;ratioP1;P1;durP2;ratioP2;P2;SDS_P1;SDS_P2;PMS_P1;PMS_P2;Temp;Humidity;BMP_temperature;BMP_pressure;BME280_temperature;BME280_humidity;BME280_pressure;Samples;Min_cycle;Max_cycle;Signal;HPM_P1;HPM_P2
2021/01/01 00:01:09;;;;;;;80.83;45.70;;;5.70;93.70;;;;;;5100292;28;20440;-77
2021/01/01 00:03:35;;;;;;;94.20;64.33;;;5.70;93.70;;;;;;5099114;28;20455;-77
2021/01/01 00:06:01;;;;;;;66.07;42.73;;;5.70;93.70;;;;;;5097244;28;20444;-77
2021/01/01 00:08:29;;;;;;;64.60;42.60;;;5.60;93.60;;;;;;5097729;28;20463;-77
2021/01/01 00:10:55;;;;;;;69.00;41.67;;;5.60;93.70;;;;;;5097791;28;20478;-78
2021/01/01 00:13:22;;;;;;;60.80;36.10;;;5.60;93.80;;;;;;5099772;28;20918;-78
2021/01/01 00:15:49;;;;;;;51.67;33.47;;;5.60;93.80;;;;;;5100925;28;20801;-77
2021/01/01 00:18:15;;;;;;;59.73;41.50;;;5.60;93.80;;;;;;5100425;28;20466;-78
2021/01/01 00:20:42;;;;;;;67.13;43.60;;;5.70;93.80;;;;;;5100592;28;20474;-78
2021/01/01 00:23:09;;;;;;;61.43;38.07;;;5.70;93.80;;;;;;5101728;28;20924;-78
2021/01/01 00:25:35;;;;;;;53.83;34.47;;;5.70;93.80;;;;;;5103614;28;20494;-79
2021/01/01 00:28:02;;;;;;;55.80;33.33;;;5.70;93.80;;;;;;5103600;28;20463;-78
2021/01/01 00:30:28;;;;;;;51.80;32.63;;;5.70;93.80;;;;;;5100712;28;20471;-78
2021/01/01 00:32:55;;;;;;;50.63;30.20;;;5.70;93.60;;;;;;5099937;28;20485;-78
2021/01/01 00:35:22;;;;;;;47.23;31.83;;;5.70;93.60;;;;;;5101276;28;20432;-78
2021/01/01 00:37:48;;;;;;;53.03;33.03;;;5.60;93.50;;;;;;5099849;28;20995;-78
2021/01/01 00:40:14;;;;;;;53.53;31.63;;;5.60;93.50;;;;;;5100272;28;20431;-78
2021/01/01 00:42:40;;;;;;;50.67;32.50;;;5.60;93.60;;;;;;5100067;28;20439;-78
2021/01/01 00:45:08;;;;;;;49.87;32.07;;;5.60;93.70;;;;;;5100369;28;20806;-78
2021/01/01 00:47:34;;;;;;;49.30;32.40;;;5.60;93.80;;;;;;5100269;28;20467;-78
2021/01/01 00:50:02;;;;;;;48.40;32.27;;;5.50;93.80;;;;;;5100352;28;20486;-78
2021/01/01 00:52:28;;;;;;;45.70;31.10;;;5.50;93.90;;;;;;5100011;28;20813;-78
2021/01/01 00:54:54;;;;;;;47.67;30.80;;;5.50;93.90;;;;;;5100007;28;20506;-78
2021/01/01 00:57:20;;;;;;;41.83;28.83;;;5.50;93.80;;;;;;5099160;28;21031;-78
2021/01/01 00:59:46;;;;;;;41.53;26.77;;;5.50;93.60;;;;;;5099304;28;20444;-78
2021/01/01 01:02:12;;;;;;;43.27;26.90;;;5.50;93.60;;;;;;5099323;28;21050;-78
2021/01/01 01:04:39;;;;;;;40.70;27.13;;;5.50;93.60;;;;;;5098892;28;20486;-78
2021/01/01 01:07:06;;;;;;;40.20;27.47;;;5.60;93.70;;;;;;5098509;28;20467;-78
2021/01/01 01:09:32;;;;;;;42.73;26.30;;;5.50;93.50;;;;;;5099104;28;20996;-78
2021/01/01 01:11:58;;;;;;;43.07;27.50;;;5.60;93.30;;;;;;5099110;28;20451;-78
2021/01/01 01:14:24;;;;;;;46.63;28.70;;;5.50;93.20;;;;;;5099462;28;20448;-78
2021/01/01 01:16:50;;;;;;;42.43;27.00;;;5.40;93.30;;;;;;5099068;28;20444;-78
2021/01/01 01:19:17;;;;;;;39.50;25.17;;;5.50;93.40;;;;;;5098747;28;20424;-78
2021/01/01 01:21:43;;;;;;;38.67;25.23;;;5.40;93.40;;;;;;5099028;28;20505;-78
2021/01/01 01:24:10;;;;;;;41.27;26.13;;;5.40;93.40;;;;;;5099036;28;20428;-78
2021/01/01 01:26:36;;;;;;;41.97;26.67;;;5.40;93.40;;;;;;5098269;28;20504;-78
2021/01/01 01:29:03;;;;;;;39.60;26.03;;;5.40;93.30;;;;;;5098962;28;20424;-78
2021/01/01 01:31:29;;;;;;;36.37;24.13;;;5.40;93.50;;;;;;5098604;28;20933;-78
2021/01/01 01:33:55;;;;;;;40.50;25.90;;;5.40;93.60;;;;;;5098407;28;20450;-78
2021/01/01 01:36:22;;;;;;;48.03;22.87;;;5.40;93.50;;;;;;5098531;28;20447;-78
2021/01/01 01:38:48;;;;;;;40.23;22.73;;;5.40;93.60;;;;;;5098702;28;20517;-78
2021/01/01 01:41:15;;;;;;;35.80;23.40;;;5.40;93.60;;;;;;5098514;28;20443;-78
2021/01/01 01:43:41;;;;;;;34.23;22.10;;;5.40;93.70;;;;;;5097331;28;20447;-78
2021/01/01 01:46:07;;;;;;;37.43;24.07;;;5.40;93.60;;;;;;5097886;28;20444;-78
2021/01/01 01:48:36;;;;;;;42.90;24.00;;;5.40;93.50;;;;;;5098197;28;20464;-78
2021/01/01 01:51:04;;;;;;;35.40;23.50;;;5.40;93.90;;;;;;5097706;28;20482;-78
2021/01/01 01:53:34;;;;;;;38.73;24.60;;;5.40;93.60;;;;;;5097791;28;20455;-78
2021/01/01 01:56:01;;;;;;;36.43;24.93;;;5.40;93.60;;;;;;5097572;28;20439;-78
2021/01/01 01:58:28;;;;;;;37.60;23.33;;;5.30;93.60;;;;;;5098297;28;20798;-79
2021/01/01 02:00:58;;;;;;;36.30;23.30;;;5.30;93.60;;;;;;5097303;28;20440;-78
2021/01/01 02:03:25;;;;;;;35.43;24.90;;;5.40;93.70;;;;;;5098088;28;20512;-78
2021/01/01 02:05:51;;;;;;;36.17;23.80;;;5.40;93.70;;;;;;5097585;28;20492;-78
2021/01/01 02:08:18;;;;;;;34.57;23.60;;;5.40;93.70;;;;;;5097350;28;20466;-78
2021/01/01 02:10:45;;;;;;;37.80;24.00;;;5.40;93.70;;;;;;5097483;28;20897;-78
2021/01/01 02:13:12;;;;;;;37.30;23.83;;;5.40;93.60;;;;;;5097139;28;20941;-78
2021/01/01 02:15:39;;;;;;;40.23;24.93;;;5.40;93.60;;;;;;5097930;28;20462;-78
2021/01/01 02:18:05;;;;;;;40.27;24.70;;;5.40;93.60;;;;;;5097100;28;20464;-78
2021/01/01 02:20:32;;;;;;;35.37;25.73;;;5.40;93.50;;;;;;5098067;28;20847;-78
2021/01/01 02:22:59;;;;;;;34.90;24.87;;;5.40;93.50;;;;;;5097476;28;20443;-78
2021/01/01 02:25:25;;;;;;;36.27;24.40;;;5.40;93.40;;;;;;5097442;28;20444;-78
2021/01/01 02:27:51;;;;;;;36.67;24.90;;;5.40;93.30;;;;;;5097933;28;20512;-78
2021/01/01 02:30:18;;;;;;;35.83;24.13;;;5.40;93.20;;;;;;5097352;28;20993;-78
2021/01/01 02:32:44;;;;;;;31.80;22.70;;;5.40;93.20;;;;;;5097631;28;20444;-78
2021/01/01 02:35:11;;;;;;;31.30;21.90;;;5.30;93.20;;;;;;5096725;28;20435;-78
2021/01/01 02:37:38;;;;;;;34.10;23.10;;;5.30;93.30;;;;;;5097557;28;20460;-78
2021/01/01 02:40:06;;;;;;;38.50;23.90;;;5.30;93.30;;;;;;5097554;28;20424;-78
2021/01/01 02:42:33;;;;;;;32.57;22.53;;;5.30;93.30;;;;;;5097145;28;20436;-78
2021/01/01 02:44:59;;;;;;;34.93;23.40;;;5.20;93.30;;;;;;5097117;28;20520;-78
2021/01/01 02:47:25;;;;;;;36.17;22.53;;;5.30;93.30;;;;;;5096583;28;21007;-78
2021/01/01 02:49:51;;;;;;;31.47;22.47;;;5.30;93.40;;;;;;5096840;28;20475;-78
2021/01/01 02:52:18;;;;;;;31.80;22.33;;;5.30;93.40;;;;;;5097163;28;20498;-78
2021/01/01 02:54:46;;;;;;;32.20;20.80;;;5.20;93.30;;;;;;5098345;28;20423;-78
2021/01/01 02:57:13;;;;;;;34.00;22.67;;;5.20;93.20;;;;;;5101020;28;20464;-78
2021/01/01 02:59:39;;;;;;;30.37;21.30;;;5.20;93.20;;;;;;5101221;28;20509;-78
2021/01/01 03:02:05;;;;;;;32.50;21.57;;;5.20;93.10;;;;;;5101693;28;20440;-78
2021/01/01 03:04:32;;;;;;;31.20;21.87;;;5.30;93.20;;;;;;5100802;28;20451;-78
2021/01/01 03:06:58;;;;;;;32.57;21.57;;;5.30;93.20;;;;;;5100711;28;20565;-78
2021/01/01 03:09:24;;;;;;;31.00;21.73;;;5.30;93.20;;;;;;5100912;28;20468;-78
2021/01/01 03:11:50;;;;;;;32.90;22.03;;;5.30;93.10;;;;;;5100391;28;20840;-78
2021/01/01 03:14:17;;;;;;;29.80;21.23;;;5.30;93.20;;;;;;5101036;28;20454;-78
2021/01/01 03:16:43;;;;;;;30.37;21.17;;;5.30;93.20;;;;;;5100320;28;20504;-78
2021/01/01 03:19:09;;;;;;;29.80;21.20;;;5.30;93.30;;;;;;5100124;28;20957;-78
2021/01/01 03:21:36;;;;;;;29.00;21.50;;;5.30;93.30;;;;;;5100771;28;20443;-78
2021/01/01 03:24:02;;;;;;;29.20;20.83;;;5.30;93.40;;;;;;5100413;28;20447;-78
2021/01/01 03:26:28;;;;;;;33.90;23.47;;;5.30;93.40;;;;;;5100110;28;20447;-78
2021/01/01 03:28:55;;;;;;;33.00;23.07;;;5.30;93.40;;;;;;5099664;28;20479;-77
2021/01/01 03:31:22;;;;;;;34.73;23.13;;;5.30;93.40;;;;;;5100435;28;20513;-78
2021/01/01 03:33:48;;;;;;;34.10;22.80;;;5.30;93.40;;;;;;5100185;28;20504;-78
2021/01/01 03:36:14;;;;;;;38.80;24.50;;;5.30;93.40;;;;;;5099466;28;20448;-78
2021/01/01 03:38:40;;;;;;;34.53;24.53;;;5.30;93.30;;;;;;5099613;28;20468;-78
2021/01/01 03:41:06;;;;;;;36.87;24.77;;;5.30;93.40;;;;;;5099532;28;21043;-78
2021/01/01 03:43:33;;;;;;;36.77;23.93;;;5.20;93.50;;;;;;5099665;28;20448;-78
2021/01/01 03:45:59;;;;;;;36.37;25.80;;;5.20;93.50;;;;;;5099115;28;20432;-78
2021/01/01 03:48:26;;;;;;;38.80;26.63;;;5.20;93.60;;;;;;5099826;28;20871;-78
2021/01/01 03:50:52;;;;;;;40.07;27.20;;;5.20;93.70;;;;;;5099913;28;20475;-78
2021/01/01 03:53:18;;;;;;;38.50;25.97;;;5.20;93.70;;;;;;5099279;28;20444;-78
2021/01/01 03:55:46;;;;;;;45.80;30.53;;;5.20;93.70;;;;;;5100206;28;20444;-78
2021/01/01 03:58:12;;;;;;;47.57;31.07;;;5.20;93.80;;;;;;5099347;28;20471;-78
2021/01/01 04:00:38;;;;;;;44.37;31.27;;;5.20;93.70;;;;;;5099053;28;20446;-78
2021/01/01 04:03:04;;;;;;;49.67;32.43;;;5.20;93.70;;;;;;5099473;28;20500;-78
2021/01/01 04:05:31;;;;;;;46.90;32.20;;;5.20;93.70;;;;;;5098274;28;20446;-78
2021/01/01 04:07:57;;;;;;;44.90;32.40;;;5.10;93.70;;;;;;5098468;28;20466;-78
2021/01/01 04:10:24;;;;;;;48.77;33.30;;;5.10;93.80;;;;;;5098872;28;20475;-78
2021/01/01 04:12:50;;;;;;;52.30;34.40;;;5.10;93.80;;;;;;5099122;28;20447;-78
2021/01/01 04:15:16;;;;;;;49.70;34.00;;;5.10;93.90;;;;;;5098940;28;20439;-78
2021/01/01 04:17:42;;;;;;;51.40;33.63;;;5.10;94.00;;;;;;5099675;28;20467;-78
2021/01/01 04:20:09;;;;;;;50.67;34.53;;;5.10;93.90;;;;;;5099307;28;20444;-78
2021/01/01 04:22:36;;;;;;;51.13;34.53;;;5.10;94.00;;;;;;5099448;28;20439;-77
2021/01/01 04:25:03;;;;;;;52.10;35.00;;;5.10;94.10;;;;;;5098945;28;20447;-78
2021/01/01 04:27:29;;;;;;;54.20;35.60;;;5.10;94.10;;;;;;5098561;28;20459;-78
2021/01/01 04:29:56;;;;;;;61.30;37.40;;;5.10;94.10;;;;;;5098652;28;20886;-78
2021/01/01 04:32:22;;;;;;;55.47;36.63;;;5.10;94.40;;;;;;5098140;28;20946;-78
2021/01/01 04:34:48;;;;;;;49.80;35.03;;;5.10;94.10;;;;;;5098722;28;20813;-78
2021/01/01 04:37:14;;;;;;;54.77;36.00;;;5.10;94.10;;;;;;5098505;28;20444;-78
2021/01/01 04:39:41;;;;;;;61.77;36.43;;;5.10;94.10;;;;;;5098352;28;20440;-78
2021/01/01 04:42:08;;;;;;;56.93;37.27;;;5.10;94.10;;;;;;5098590;28;20447;-78
2021/01/01 04:44:34;;;;;;;54.00;36.30;;;5.10;94.00;;;;;;5098339;28;20439;-78
2021/01/01 04:47:03;;;;;;;56.37;37.20;;;5.10;94.10;;;;;;5098239;28;20463;-78
2021/01/01 04:49:29;;;;;;;61.33;37.93;;;5.10;94.00;;;;;;5097635;28;20448;-78
2021/01/01 04:51:57;;;;;;;56.37;38.33;;;5.00;94.00;;;;;;5098941;28;20448;-78
2021/01/01 04:54:31;;;;;;;54.67;36.87;;;5.00;94.10;;;;;;5098370;28;20918;-78
2021/01/01 04:56:58;;;;;;;61.33;38.50;;;5.00;94.20;;;;;;5097804;28;20432;-78
2021/01/01 04:59:24;;;;;;;58.00;36.70;;;5.00;94.30;;;;;;5097967;28;20446;-78
2021/01/01 05:01:50;;;;;;;54.97;36.87;;;4.90;94.20;;;;;;5097622;28;20933;-78
2021/01/01 05:04:17;;;;;;;57.70;36.47;;;5.00;94.20;;;;;;5097586;28;20460;-78
2021/01/01 05:06:43;;;;;;;56.77;36.10;;;4.90;94.20;;;;;;5097286;28;20455;-77
2021/01/01 05:09:11;;;;;;;56.70;36.73;;;4.90;94.30;;;;;;5097369;28;20448;-78
2021/01/01 05:11:38;;;;;;;59.90;36.67;;;4.90;94.30;;;;;;5097920;28;20553;-78
2021/01/01 05:14:06;;;;;;;56.87;36.57;;;4.90;94.20;;;;;;5097406;28;20446;-78
2021/01/01 05:16:33;;;;;;;56.10;35.67;;;4.90;94.20;;;;;;5097443;28;20444;-78
2021/01/01 05:19:08;;;;;;;53.23;35.30;;;4.90;94.10;;;;;;5097801;28;20472;-78
2021/01/01 05:21:34;;;;;;;54.73;34.80;;;4.90;94.10;;;;;;5097634;28;20430;-78
2021/01/01 05:24:00;;;;;;;49.00;34.20;;;4.90;94.10;;;;;;5097164;28;20807;-78
2021/01/01 05:26:27;;;;;;;53.20;36.13;;;4.90;94.10;;;;;;5097656;28;20447;-78
2021/01/01 05:29:02;;;;;;;55.77;36.47;;;4.80;94.00;;;;;;5097342;28;20471;-78
2021/01/01 05:31:31;;;;;;;52.83;36.37;;;4.80;93.90;;;;;;5097411;28;20592;-78
2021/01/01 05:34:00;;;;;;;50.93;35.83;;;4.80;93.80;;;;;;5097695;28;20510;-78
2021/01/01 05:36:35;;;;;;;52.30;32.90;;;4.80;93.80;;;;;;5097308;28;20501;-78
2021/01/01 05:39:05;;;;;;;58.83;36.97;;;4.80;93.90;;;;;;5097573;28;20463;-78
2021/01/01 05:41:36;;;;;;;58.43;37.60;;;4.80;93.90;;;;;;5096357;28;20444;-78
2021/01/01 05:44:10;;;;;;;53.10;37.13;;;4.80;93.90;;;;;;5096793;28;20800;-78
2021/01/01 05:46:37;;;;;;;58.70;38.57;;;4.80;93.80;;;;;;5096971;28;20450;-78
2021/01/01 05:49:04;;;;;;;60.37;38.37;;;4.80;93.80;;;;;;5097010;28;20858;-78
2021/01/01 05:51:30;;;;;;;62.90;40.10;;;4.80;93.90;;;;;;5096924;28;20483;-78
2021/01/01 05:54:11;;;;;;;58.13;39.07;;;4.80;93.90;;;;;;5096702;28;20446;-78
2021/01/01 05:56:39;;;;;;;58.30;40.23;;;4.80;93.90;;;;;;5096148;28;20467;-78
2021/01/01 05:59:09;;;;;;;62.93;39.30;;;4.80;93.90;;;;;;5095839;28;20478;-77
2021/01/01 06:01:39;;;;;;;61.77;41.10;;;4.80;94.00;;;;;;5095988;28;20808;-78
2021/01/01 06:04:05;;;;;;;53.43;37.63;;;4.80;93.90;;;;;;5095730;28;20458;-78
2021/01/01 06:06:33;;;;;;;60.43;40.23;;;4.80;94.00;;;;;;5095525;28;20451;-78
2021/01/01 06:09:04;;;;;;;59.33;40.80;;;4.80;93.90;;;;;;5095859;28;20464;-78
2021/01/01 06:11:35;;;;;;;60.37;37.83;;;4.90;94.00;;;;;;5096121;28;20464;-78
2021/01/01 06:14:05;;;;;;;58.87;39.57;;;4.90;94.00;;;;;;5095542;28;20420;-78
2021/01/01 06:16:43;;;;;;;58.53;39.27;;;4.90;93.90;;;;;;5095605;28;20424;-78
2021/01/01 06:19:11;;;;;;;53.23;37.73;;;4.80;93.80;;;;;;5096022;28;20434;-78
2021/01/01 06:21:43;;;;;;;64.10;41.70;;;4.90;93.90;;;;;;5096525;28;20463;-78
2021/01/01 06:24:19;;;;;;;58.97;40.60;;;4.90;93.80;;;;;;5096198;28;20479;-78
2021/01/01 06:26:45;;;;;;;58.50;38.97;;;4.90;93.80;;;;;;5095839;28;20493;-78
2021/01/01 06:29:16;;;;;;;63.57;42.13;;;4.80;93.70;;;;;;5094979;28;20444;-78
2021/01/01 06:31:44;;;;;;;59.20;39.93;;;4.80;93.80;;;;;;5096005;28;20483;-78
2021/01/01 06:34:28;;;;;;;64.83;41.50;;;4.80;93.70;;;;;;5095498;28;20497;-78
2021/01/01 06:36:54;;;;;;;60.27;42.63;;;4.80;93.70;;;;;;5096004;28;20483;-78
2021/01/01 06:39:40;;;;;;;65.40;42.00;;;4.80;93.70;;;;;;5095514;28;20446;-78
2021/01/01 06:42:07;;;;;;;65.40;41.80;;;4.80;93.80;;;;;;5095828;28;20782;-78
2021/01/01 06:44:42;;;;;;;67.53;45.13;;;4.80;93.80;;;;;;5096252;28;20443;-78
2021/01/01 06:47:09;;;;;;;73.63;44.30;;;4.80;93.80;;;;;;5095572;28;20512;-79
2021/01/01 06:49:38;;;;;;;68.37;46.33;;;4.70;94.20;;;;;;5095529;28;20447;-78
2021/01/01 06:52:16;;;;;;;71.20;47.33;;;4.70;93.90;;;;;;5095589;28;20439;-78
2021/01/01 06:55:01;;;;;;;74.40;46.43;;;4.70;94.00;;;;;;5095708;28;20427;-78
2021/01/01 06:57:28;;;;;;;64.83;44.67;;;4.60;94.00;;;;;;5094529;28;20471;-78
2021/01/01 06:59:56;;;;;;;68.30;47.17;;;4.70;94.20;;;;;;5095362;28;20832;-78
2021/01/01 07:02:31;;;;;;;67.00;45.80;;;4.70;94.10;;;;;;5095987;28;20443;-78
2021/01/01 07:04:58;;;;;;;72.60;44.87;;;4.60;94.10;;;;;;5095152;28;20447;-78
2021/01/01 07:07:42;;;;;;;71.70;46.53;;;4.60;94.10;;;;;;5095424;28;20456;-78
2021/01/01 07:10:13;;;;;;;73.67;45.73;;;4.60;94.10;;;;;;5095360;28;20464;-78
2021/01/01 07:12:39;;;;;;;67.67;47.23;;;4.70;94.10;;;;;;5095725;28;20459;-78
2021/01/01 07:15:32;;;;;;;76.23;48.87;;;4.60;94.10;;;;;;5096907;28;20436;-79
2021/01/01 07:17:58;;;;;;;70.20;46.17;;;4.60;94.20;;;;;;5100990;28;20468;-78
2021/01/01 07:20:25;;;;;;;70.20;47.27;;;4.60;94.20;;;;;;5101371;28;20435;-78
2021/01/01 07:22:57;;;;;;;73.03;47.30;;;4.60;94.20;;;;;;5101937;28;20454;-79
2021/01/01 07:25:35;;;;;;;77.50;47.57;;;4.60;94.10;;;;;;5101945;28;20428;-79
2021/01/01 07:28:04;;;;;;;67.40;46.43;;;4.60;94.10;;;;;;5102269;28;20541;-79
2021/01/01 07:30:32;;;;;;;77.73;47.40;;;4.60;94.10;;;;;;5101569;28;21015;-79
2021/01/01 07:32:59;;;;;;;73.07;46.47;;;4.60;94.20;;;;;;5101312;28;20451;-79
2021/01/01 07:35:27;;;;;;;67.30;45.50;;;4.60;94.40;;;;;;5101342;28;20427;-79
2021/01/01 07:37:53;;;;;;;79.07;49.20;;;4.60;94.10;;;;;;5101267;28;20471;-79
2021/01/01 07:40:20;;;;;;;75.07;45.90;;;4.60;94.20;;;;;;5100817;28;20439;-78
2021/01/01 07:42:48;;;;;;;72.07;46.30;;;4.60;94.10;;;;;;5103958;28;20436;-79
2021/01/01 07:45:14;;;;;;;77.40;46.10;;;4.60;94.10;;;;;;5108305;28;20444;-79
2021/01/01 07:47:43;;;;;;;72.93;46.67;;;4.60;94.10;;;;;;5108289;28;20471;-78
2021/01/01 07:50:13;;;;;;;80.77;49.57;;;4.60;94.00;;;;;;5108422;28;20479;-79
2021/01/01 07:52:40;;;;;;;68.63;46.93;;;4.60;94.10;;;;;;5108426;28;20455;-79
2021/01/01 07:55:07;;;;;;;72.60;46.80;;;4.60;94.00;;;;;;5108314;28;20460;-79
2021/01/01 07:57:35;;;;;;;72.10;46.70;;;4.60;94.10;;;;;;5108334;28;20467;-79
2021/01/01 08:00:01;;;;;;;70.93;45.97;;;4.70;94.10;;;;;;5107941;28;20839;-79
2021/01/01 08:02:30;;;;;;;65.50;45.70;;;4.70;94.10;;;;;;5108715;28;20793;-78
2021/01/01 08:04:56;;;;;;;78.20;48.30;;;4.70;94.00;;;;;;5107395;28;20464;-79
2021/01/01 08:07:23;;;;;;;69.93;44.23;;;4.70;93.90;;;;;;5107817;28;20466;-79
2021/01/01 08:09:50;;;;;;;74.50;47.13;;;4.70;93.90;;;;;;5106854;28;20444;-79
2021/01/01 08:12:16;;;;;;;74.33;47.10;;;4.70;93.90;;;;;;5107693;28;20791;-79
2021/01/01 08:14:49;;;;;;;76.23;45.57;;;4.70;93.80;;;;;;5108022;28;20448;-79
2021/01/01 08:17:19;;;;;;;74.07;46.03;;;4.80;93.80;;;;;;5108087;28;20467;-79
2021/01/01 08:19:46;;;;;;;69.13;44.63;;;4.80;93.60;;;;;;5107637;28;20436;-78
2021/01/01 08:22:14;;;;;;;77.83;45.00;;;4.80;93.50;;;;;;5108014;28;20436;-79
2021/01/01 08:24:43;;;;;;;61.90;42.27;;;4.80;93.50;;;;;;5107299;28;20439;-79
2021/01/01 08:27:11;;;;;;;70.30;44.10;;;4.80;93.60;;;;;;5107512;28;20459;-79
2021/01/01 08:29:39;;;;;;;69.50;43.53;;;4.90;93.70;;;;;;5108231;28;20443;-79
2021/01/01 08:32:06;;;;;;;70.77;43.40;;;4.90;93.70;;;;;;5107261;28;20488;-79
2021/01/01 08:34:32;;;;;;;62.90;41.30;;;4.90;93.60;;;;;;5107482;28;20447;-79
2021/01/01 08:36:58;;;;;;;65.80;44.10;;;5.00;93.50;;;;;;5107236;28;20444;-79
2021/01/01 08:39:26;;;;;;;60.27;41.13;;;5.00;93.30;;;;;;5107131;28;20440;-79
2021/01/01 08:41:52;;;;;;;65.37;40.67;;;5.00;93.30;;;;;;5107549;28;20448;-79
2021/01/01 08:44:24;;;;;;;65.67;41.90;;;5.00;93.30;;;;;;5107705;28;20449;-79
2021/01/01 08:46:58;;;;;;;68.67;42.90;;;4.90;93.20;;;;;;5107521;28;20867;-79
2021/01/01 08:49:24;;;;;;;57.30;36.73;;;5.00;93.40;;;;;;5105508;28;20435;-78
2021/01/01 08:51:50;;;;;;;57.10;38.50;;;5.00;93.30;;;;;;5103010;28;20532;-79
2021/01/01 08:54:23;;;;;;;57.40;38.70;;;5.00;93.40;;;;;;5105125;28;20444;-79
2021/01/01 08:56:58;;;;;;;57.80;38.37;;;5.00;93.30;;;;;;5106413;28;20447;-79
2021/01/01 08:59:25;;;;;;;56.57;38.07;;;5.10;93.30;;;;;;5106266;28;20842;-79
2021/01/01 09:01:52;;;;;;;56.13;36.70;;;5.10;93.20;;;;;;5106693;28;20446;-79
2021/01/01 09:04:22;;;;;;;59.57;38.20;;;5.10;93.00;;;;;;5106725;28;20479;-79
2021/01/01 09:06:59;;;;;;;53.37;36.03;;;5.20;93.00;;;;;;5107176;28;20409;-79
2021/01/01 09:09:28;;;;;;;58.37;36.00;;;5.10;93.00;;;;;;5107136;28;20432;-79
2021/01/01 09:12:12;;;;;;;56.37;35.37;;;5.20;93.00;;;;;;5106586;28;20471;-79
2021/01/01 09:14:50;;;;;;;60.37;37.77;;;5.20;93.10;;;;;;5106950;28;20434;-78
2021/01/01 09:17:17;;;;;;;62.27;36.40;;;5.20;93.00;;;;;;5106790;28;20451;-79
2021/01/01 09:19:43;;;;;;;55.93;35.60;;;5.20;93.10;;;;;;5106600;28;20447;-79
2021/01/01 09:22:14;;;;;;;52.63;34.00;;;5.30;93.00;;;;;;5106358;28;20447;-79
2021/01/01 09:24:40;;;;;;;55.37;34.53;;;5.20;93.00;;;;;;5106199;28;20452;-79
2021/01/01 09:27:06;;;;;;;59.73;36.93;;;5.30;93.10;;;;;;5105957;28;20459;-79
2021/01/01 09:29:32;;;;;;;63.40;35.53;;;5.30;93.20;;;;;;5105746;28;20440;-79
2021/01/01 09:31:59;;;;;;;57.37;34.83;;;5.40;93.20;;;;;;5105447;28;20604;-79
2021/01/01 09:34:26;;;;;;;54.53;35.43;;;5.40;93.10;;;;;;5106335;28;20439;-79
2021/01/01 09:36:52;;;;;;;60.30;36.03;;;5.50;93.10;;;;;;5106810;28;20431;-79
2021/01/01 09:39:18;;;;;;;55.27;32.60;;;5.50;92.80;;;;;;5105658;28;20967;-79
2021/01/01 09:41:48;;;;;;;61.03;37.17;;;5.60;93.00;;;;;;5105316;28;20448;-79
2021/01/01 09:44:15;;;;;;;51.77;34.27;;;5.60;93.00;;;;;;5106909;28;20440;-79
2021/01/01 09:46:42;;;;;;;55.27;34.23;;;5.70;92.90;;;;;;5106242;28;20444;-78
2021/01/01 09:49:09;;;;;;;50.37;34.03;;;5.80;92.60;;;;;;5105350;28;20504;-78
2021/01/01 09:51:36;;;;;;;52.53;33.20;;;5.80;92.70;;;;;;5104841;28;20474;-79
2021/01/01 09:54:02;;;;;;;54.50;35.10;;;5.90;92.70;;;;;;5104561;28;20435;-79
2021/01/01 09:56:35;;;;;;;51.50;33.77;;;6.00;92.50;;;;;;5105929;28;20440;-80
2021/01/01 09:59:01;;;;;;;52.73;33.80;;;6.10;92.60;;;;;;5104932;28;20463;-79
2021/01/01 10:01:29;;;;;;;46.00;31.57;;;6.20;92.10;;;;;;5104908;28;20439;-78
2021/01/01 10:03:55;;;;;;;49.17;31.73;;;6.20;91.80;;;;;;5103330;28;20486;-78
2021/01/01 10:06:23;;;;;;;53.83;32.37;;;6.30;92.10;;;;;;5104323;28;20443;-79
2021/01/01 10:08:49;;;;;;;47.47;31.07;;;6.40;92.00;;;;;;5103334;28;20460;-79
2021/01/01 10:11:15;;;;;;;46.13;31.43;;;6.40;91.40;;;;;;5103664;28;20487;-78
2021/01/01 10:13:42;;;;;;;43.37;29.20;;;6.50;91.10;;;;;;5103133;28;20424;-78
2021/01/01 10:16:09;;;;;;;51.67;30.90;;;6.50;91.30;;;;;;5102427;28;20446;-78
2021/01/01 10:18:35;;;;;;;45.90;29.93;;;6.60;91.30;;;;;;5102000;28;20485;-78
2021/01/01 10:21:02;;;;;;;44.87;29.93;;;6.70;91.30;;;;;;5102784;28;20501;-78
2021/01/01 10:23:29;;;;;;;37.77;27.17;;;6.80;91.10;;;;;;5101908;28;20447;-78
2021/01/01 10:25:55;;;;;;;48.40;29.07;;;6.90;90.70;;;;;;5101106;28;20497;-78
2021/01/01 10:28:21;;;;;;;40.90;29.30;;;6.90;90.50;;;;;;5100518;28;20513;-78
2021/01/01 10:30:47;;;;;;;46.70;31.27;;;7.00;90.80;;;;;;5103396;28;20487;-78
2021/01/01 10:33:14;;;;;;;40.60;29.23;;;7.00;90.40;;;;;;5101925;28;20772;-78
2021/01/01 10:35:41;;;;;;;40.53;28.00;;;7.10;90.60;;;;;;5100162;28;20464;-78
2021/01/01 10:38:07;;;;;;;40.00;28.10;;;7.20;90.40;;;;;;5100590;28;20475;-78
2021/01/01 10:40:34;;;;;;;41.03;28.40;;;7.20;90.20;;;;;;5102160;28;20466;-78
2021/01/01 10:43:00;;;;;;;39.73;26.63;;;7.20;90.10;;;;;;5102385;28;20448;-78
2021/01/01 10:45:27;;;;;;;41.63;28.20;;;7.30;90.00;;;;;;5101225;28;20439;-78
2021/01/01 10:47:53;;;;;;;37.53;26.13;;;7.30;90.00;;;;;;5101532;28;20464;-78
2021/01/01 10:50:19;;;;;;;41.37;28.47;;;7.40;89.60;;;;;;5102242;28;20471;-78
2021/01/01 10:52:45;;;;;;;38.17;27.27;;;7.40;90.10;;;;;;5100996;28;20448;-78
2021/01/01 10:55:13;;;;;;;38.63;25.80;;;7.50;89.30;;;;;;5099950;28;20539;-78
2021/01/01 10:57:40;;;;;;;39.77;26.27;;;7.50;88.60;;;;;;5100568;28;20471;-78
2021/01/01 11:00:07;;;;;;;41.50;27.23;;;7.60;88.50;;;;;;5099329;28;20960;-78
2021/01/01 11:02:34;;;;;;;35.97;25.03;;;7.70;88.40;;;;;;5099755;28;20444;-78
2021/01/01 11:05:00;;;;;;;38.10;25.13;;;7.80;88.30;;;;;;5100222;28;20471;-78
2021/01/01 11:07:26;;;;;;;38.33;23.63;;;8.00;88.20;;;;;;5101725;28;20471;-78
2021/01/01 11:09:52;;;;;;;35.90;24.63;;;8.20;86.90;;;;;;5099124;28;20436;-78
2021/01/01 11:12:18;;;;;;;34.30;25.77;;;8.30;85.30;;;;;;5097052;28;20448;-78
2021/01/01 12:21:30;;;;;;;30.73;24.07;;;9.20;77.90;;;;;;5096287;28;20403;-77
2021/01/01 12:24:05;;;;;;;30.90;21.77;;;9.20;78.30;;;;;;5095894;28;20882;-77
2021/01/01 12:26:31;;;;;;;31.90;23.93;;;9.40;78.00;;;;;;5095981;28;20461;-77
2021/01/01 12:28:59;;;;;;;30.37;22.60;;;9.40;76.40;;;;;;5095506;28;20456;-77
2021/01/01 12:31:25;;;;;;;33.13;23.77;;;9.30;76.40;;;;;;5096081;28;20479;-77
2021/01/01 12:33:52;;;;;;;32.13;23.83;;;9.30;76.70;;;;;;5095987;28;20818;-77
2021/01/01 12:36:19;;;;;;;31.60;23.67;;;9.30;77.00;;;;;;5095946;28;20447;-77
2021/01/01 12:38:47;;;;;;;32.70;24.10;;;9.20;76.70;;;;;;5096548;28;20463;-77
2021/01/01 12:41:14;;;;;;;31.63;24.23;;;9.20;77.50;;;;;;5095399;28;20440;-77
2021/01/01 12:43:40;;;;;;;31.47;23.03;;;9.20;77.20;;;;;;5095812;28;20455;-77
2021/01/01 12:46:06;;;;;;;30.13;21.27;;;9.30;77.00;;;;;;5096027;28;20443;-77
2021/01/01 12:48:33;;;;;;;33.27;23.93;;;9.40;76.00;;;;;;5095802;28;20460;-77
2021/01/01 12:50:59;;;;;;;29.37;22.70;;;9.40;76.00;;;;;;5096129;28;20486;-77
2021/01/01 12:53:26;;;;;;;27.37;22.20;;;9.40;76.00;;;;;;5096067;28;20450;-77
2021/01/01 12:55:52;;;;;;;29.80;22.77;;;9.50;76.90;;;;;;5096089;28;20441;-77
2021/01/01 12:58:18;;;;;;;28.47;22.33;;;9.50;76.60;;;;;;5095462;28;20459;-77
2021/01/01 13:00:44;;;;;;;27.17;22.10;;;9.60;76.40;;;;;;5095664;28;20791;-77
2021/01/01 13:03:10;;;;;;;27.50;19.90;;;9.70;76.30;;;;;;5095697;28;20497;-77
2021/01/01 13:05:37;;;;;;;25.33;20.87;;;9.70;73.90;;;;;;5095792;28;20436;-77
2021/01/01 13:08:03;;;;;;;27.60;21.03;;;9.80;74.50;;;;;;5095303;28;20463;-77
2021/01/01 13:10:30;;;;;;;28.20;22.60;;;9.90;75.40;;;;;;5096135;28;20837;-77
2021/01/01 13:12:56;;;;;;;25.63;19.23;;;9.90;74.80;;;;;;5095961;28;20443;-77
2021/01/01 13:15:22;;;;;;;23.93;20.33;;;10.10;72.70;;;;;;5095986;28;20424;-77
2021/01/01 13:17:49;;;;;;;29.87;23.60;;;10.10;71.30;;;;;;5095890;28;20463;-77
2021/01/01 13:20:15;;;;;;;29.90;22.73;;;10.10;70.80;;;;;;5096299;28;20440;-77
2021/01/01 13:22:42;;;;;;;24.63;21.10;;;10.10;71.20;;;;;;5096597;28;20473;-78
2021/01/01 13:25:09;;;;;;;24.33;19.23;;;10.20;70.70;;;;;;5096185;28;20443;-77
2021/01/01 13:27:36;;;;;;;23.93;18.53;;;10.10;70.70;;;;;;5095964;28;20942;-77
2021/01/01 13:30:03;;;;;;;26.80;20.33;;;10.10;71.60;;;;;;5096022;28;20485;-77
2021/01/01 13:32:29;;;;;;;24.17;17.67;;;10.10;71.00;;;;;;5096391;28;20448;-77
2021/01/01 13:34:56;;;;;;;19.40;15.60;;;10.10;71.10;;;;;;5095792;28;20933;-77
2021/01/01 13:37:22;;;;;;;19.80;16.33;;;10.20;70.80;;;;;;5096282;28;20513;-77
2021/01/01 13:39:48;;;;;;;21.00;16.30;;;10.20;70.30;;;;;;5094964;28;20444;-78
2021/01/01 13:42:15;;;;;;;17.47;14.77;;;10.30;70.60;;;;;;5095128;28;20443;-78
2021/01/01 13:44:42;;;;;;;18.50;14.47;;;10.30;69.20;;;;;;5095159;28;20543;-77